Time;durP1;ratioP1;P1;durP2;ratioP2;P2;SDS_P1;SDS_P2;PMS_P1;PMS_P2;Temp;Humidity;BMP_temperature;BMP_pressure;BME280_temperature;BME280_humidity;BME280_pressure;Samples;Min_cycle;Max_cycle;Signal;HPM_P1;HPM_P2
2021/01/27 00:00:14;;;;;;;11.88;7.67;;;;;;;0.58;68.62;98749.92;1669607;85;21184;-59
2021/01/27 00:02:42;;;;;;;12.68;7.80;;;;;;;0.60;68.80;98754.02;1671264;84;21314;-60
2021/01/27 00:05:17;;;;;;;11.50;7.92;;;;;;;0.56;68.87;98754.19;1673502;86;21303;-60
2021/01/27 00:07:45;;;;;;;12.35;8.38;;;;;;;0.53;68.73;98756.51;1664322;86;21330;-60
2021/01/27 00:10:15;;;;;;;11.18;7.40;;;;;;;0.48;68.47;98759.88;1645131;87;21110;-60
2021/01/27 00:12:42;;;;;;;11.90;8.05;;;;;;;0.50;68.54;98749.73;1674433;85;21169;-60
2021/01/27 00:15:15;;;;;;;12.73;8.13;;;;;;;0.43;68.46;98751.70;1680160;85;21179;-60
2021/01/27 00:17:42;;;;;;;14.15;8.48;;;;;;;0.45;68.36;98754.98;1676179;85;21179;-60
2021/01/27 00:20:13;;;;;;;12.13;7.22;;;;;;;0.45;68.44;98758.48;1672879;84;21157;-61
2021/01/27 00:22:40;;;;;;;11.45;7.95;;;;;;;0.46;68.41;98753.39;1669918;86;21648;-60
2021/01/27 00:25:11;;;;;;;11.55;7.00;;;;;;;0.48;68.27;98753.17;1618428;87;21194;-60
2021/01/27 00:27:38;;;;;;;11.10;7.50;;;;;;;0.45;68.35;98751.78;1675993;85;21176;-60
2021/01/27 00:30:15;;;;;;;11.08;6.67;;;;;;;0.43;67.99;98745.83;1641503;87;21177;-60
2021/01/27 00:32:42;;;;;;;12.37;7.83;;;;;;;0.43;67.83;98743.66;1676691;85;21183;-60
2021/01/27 00:35:12;;;;;;;12.33;7.62;;;;;;;0.44;67.59;98743.45;1663576;84;21212;-60
2021/01/27 00:37:39;;;;;;;12.50;7.60;;;;;;;0.39;67.41;98741.97;1669601;86;21660;-60
2021/01/27 00:40:10;;;;;;;13.62;7.97;;;;;;;0.39;67.13;98738.50;1661689;86;21366;-60
2021/01/27 00:42:37;;;;;;;14.23;8.20;;;;;;;0.40;67.63;98737.44;1658892;86;21767;-60
2021/01/27 00:45:06;;;;;;;11.55;7.45;;;;;;;0.39;67.82;98735.28;1670784;86;21196;-60
2021/01/27 00:47:34;;;;;;;11.18;7.28;;;;;;;0.34;67.86;98716.43;1670025;85;21153;-60
2021/01/27 00:50:05;;;;;;;10.13;6.65;;;;;;;0.34;67.82;98716.43;1644634;87;21308;-60
2021/01/27 00:52:32;;;;;;;11.28;7.20;;;;;;;0.32;67.79;98721.73;1665733;85;21484;-60
2021/01/27 00:55:00;;;;;;;12.13;7.55;;;;;;;0.24;67.51;98722.06;1650961;85;21191;-60
2021/01/27 00:57:27;;;;;;;12.63;8.03;;;;;;;0.27;67.50;98723.75;1643562;87;21177;-60
2021/01/27 00:59:55;;;;;;;12.95;7.67;;;;;;;0.24;67.58;98720.72;1625036;87;21585;-60
2021/01/27 01:02:23;;;;;;;12.37;7.53;;;;;;;0.24;67.65;98719.38;1647810;86;21656;-60
2021/01/27 01:04:53;;;;;;;13.75;8.88;;;;;;;0.23;67.83;98719.08;1610182;89;21213;-60
2021/01/27 01:07:20;;;;;;;15.13;9.38;;;;;;;0.22;68.09;98722.80;1639000;86;21591;-60
2021/01/27 01:09:47;;;;;;;15.35;9.05;;;;;;;0.22;68.09;98722.27;1683445;84;21171;-60
2021/01/27 01:12:15;;;;;;;15.60;8.80;;;;;;;0.22;68.24;98712.91;1697833;84;21196;-60
2021/01/27 01:14:43;;;;;;;15.13;8.80;;;;;;;0.21;68.17;98713.16;1696015;84;21228;-60
2021/01/27 01:17:10;;;;;;;12.20;7.78;;;;;;;0.19;68.21;98707.20;1682682;84;21740;-60
2021/01/27 01:19:38;;;;;;;10.85;7.08;;;;;;;0.17;68.28;98709.30;1690547;84;21169;-60
2021/01/27 01:22:06;;;;;;;11.80;7.87;;;;;;;0.12;68.43;98709.16;1667346;84;21203;-61
2021/01/27 01:24:34;;;;;;;12.20;6.78;;;;;;;0.12;68.44;98703.81;1679842;84;21164;-60
2021/01/27 01:27:01;;;;;;;12.10;7.33;;;;;;;0.07;68.65;98702.36;1686134;84;21666;-60
2021/01/27 01:29:28;;;;;;;10.75;6.58;;;;;;;0.00;68.93;98702.47;1668982;84;21269;-60
2021/01/27 01:31:56;;;;;;;13.55;7.60;;;;;;;-0.04;69.10;98700.73;1690407;84;21166;-60
2021/01/27 01:34:23;;;;;;;13.48;8.10;;;;;;;-0.03;69.17;98700.22;1692756;84;21308;-60
2021/01/27 01:36:51;;;;;;;13.18;8.15;;;;;;;-0.06;69.35;98698.83;1679526;84;21336;-60
2021/01/27 01:39:19;;;;;;;14.00;8.00;;;;;;;-0.10;69.46;98698.98;1696579;84;21194;-60
2021/01/27 01:41:46;;;;;;;9.80;6.65;;;;;;;-0.10;69.59;98699.50;1692830;84;21626;-60
2021/01/27 01:44:13;;;;;;;13.22;8.35;;;;;;;-0.11;69.71;98696.55;1696119;84;21183;-61
2021/01/27 01:46:41;;;;;;;12.90;8.30;;;;;;;-0.14;69.81;98695.65;1693837;84;21198;-61
2021/01/27 01:49:09;;;;;;;13.78;8.58;;;;;;;-0.12;69.87;98690.91;1681851;84;21667;-61
2021/01/27 01:51:49;;;;;;;13.03;7.78;;;;;;;-0.11;69.85;98691.20;1683424;84;21188;-61
2021/01/27 01:54:20;;;;;;;15.60;9.80;;;;;;;-0.16;69.96;98686.53;1672069;84;21196;-60
2021/01/27 01:56:53;;;;;;;14.58;8.88;;;;;;;-0.14;70.07;98684.95;1678278;84;21338;-61
2021/01/27 01:59:20;;;;;;;12.75;7.60;;;;;;;-0.15;70.18;98678.81;1689765;84;21305;-61
2021/01/27 02:01:51;;;;;;;13.22;7.92;;;;;;;-0.14;70.28;98678.26;1692416;84;21174;-61
2021/01/27 02:04:18;;;;;;;12.98;8.73;;;;;;;-0.15;70.46;98673.98;1635123;88;21205;-61
2021/01/27 02:06:47;;;;;;;12.98;8.48;;;;;;;-0.17;70.50;98677.38;1708373;84;21193;-60
2021/01/27 02:09:14;;;;;;;14.18;8.05;;;;;;;-0.20;70.59;98675.98;1706725;84;21181;-61
2021/01/27 02:11:52;;;;;;;14.78;9.05;;;;;;;-0.16;70.46;98681.19;1701571;83;21158;-61
2021/01/27 02:14:57;;;;;;;15.23;8.30;;;;;;;-0.15;70.33;98686.02;1681971;84;21307;-60
2021/01/27 02:17:49;;;;;;;15.65;9.35;;;;;;;-0.17;70.43;98678.72;1635242;88;21330;-60
2021/01/27 02:20:56;;;;;;;15.13;9.00;;;;;;;-0.20;70.46;98680.00;1655766;85;21178;-60
2021/01/27 02:23:57;;;;;;;14.90;8.88;;;;;;;-0.23;70.70;98682.31;1670763;85;21183;-60
2021/01/27 02:26:41;;;;;;;16.15;9.08;;;;;;;-0.25;70.87;98683.08;1685940;84;21166;-60
2021/01/27 02:29:39;;;;;;;16.67;9.60;;;;;;;-0.26;71.02;98679.59;1709155;83;21861;-60
2021/01/27 02:32:37;;;;;;;17.95;10.35;;;;;;;-0.28;71.16;98675.48;1708754;83;21580;-60
2021/01/27 02:35:36;;;;;;;18.95;9.83;;;;;;;-0.23;71.25;98676.97;1709125;84;21161;-60
2021/01/27 02:38:12;;;;;;;16.48;9.95;;;;;;;-0.29;71.50;98674.70;1684556;85;21253;-60
2021/01/27 02:41:10;;;;;;;17.30;10.63;;;;;;;-0.28;71.54;98666.94;1684194;84;21189;-61
2021/01/27 02:43:44;;;;;;;14.28;8.78;;;;;;;-0.32;71.74;98667.65;1701243;82;21339;-61
2021/01/27 02:46:31;;;;;;;16.50;8.70;;;;;;;-0.34;71.87;98669.72;1707355;83;21191;-61
2021/01/27 02:49:12;;;;;;;;;;;;;;;-0.33;71.89;98675.37;1695955;82;21324;-61
2021/01/27 02:52:00;;;;;;;14.80;8.63;;;;;;;-0.32;71.89;98667.10;1684545;84;20158;-60
2021/01/27 02:54:56;;;;;;;14.53;8.70;;;;;;;-0.40;72.17;98666.63;1635669;88;21202;-60
2021/01/27 02:57:30;;;;;;;15.48;9.10;;;;;;;-0.44;72.36;98676.14;1679767;84;21349;-59
2021/01/27 03:00:15;;;;;;;17.48;9.90;;;;;;;-0.45;72.49;98672.64;1658040;85;21192;-59
2021/01/27 03:02:52;;;;;;;18.25;10.85;;;;;;;-0.45;72.52;98682.00;1714736;82;21345;-59
2021/01/27 03:05:48;;;;;;;16.45;10.65;;;;;;;-0.42;72.62;98675.37;1701676;82;21102;-59
2021/01/27 03:08:23;;;;;;;18.15;10.93;;;;;;;-0.41;72.62;98673.83;1705504;84;21631;-59
2021/01/27 03:11:19;;;;;;;17.67;10.45;;;;;;;-0.41;72.75;98664.98;1707235;84;21288;-59
2021/01/27 03:13:48;;;;;;;19.23;11.70;;;;;;;-0.44;72.94;98660.91;1688108;84;21165;-59
2021/01/27 03:16:30;;;;;;;21.02;12.00;;;;;;;-0.49;73.02;98658.09;1679731;84;21130;-59
2021/01/27 03:19:10;;;;;;;17.57;10.48;;;;;;;-0.48;73.13;98663.74;1687652;83;21451;-59
2021/01/27 03:21:49;;;;;;;16.15;9.58;;;;;;;-0.44;73.12;98658.76;1692440;84;21134;-59
2021/01/27 03:24:21;;;;;;;19.17;11.08;;;;;;;-0.46;73.14;98650.95;1625218;87;21768;-59
2021/01/27 03:27:06;;;;;;;17.05;10.93;;;;;;;-0.48;73.20;98649.04;1680912;84;21280;-59
2021/01/27 03:29:55;;;;;;;14.78;9.95;;;;;;;-0.49;73.23;98650.07;1694260;84;21697;-59
2021/01/27 03:33:06;;;;;;;15.72;10.60;;;;;;;-0.50;73.24;98647.91;1704566;84;21166;-59
2021/01/27 03:35:48;;;;;;;15.93;9.95;;;;;;;-0.48;73.26;98644.20;1703856;83;21589;-59
2021/01/27 03:38:47;;;;;;;15.25;9.78;;;;;;;-0.47;73.28;98647.19;1672816;82;21177;-59
2021/01/27 03:41:28;;;;;;;15.85;10.08;;;;;;;-0.53;73.38;98650.23;1707330;84;21335;-59
2021/01/27 03:44:25;;;;;;;14.73;9.50;;;;;;;-0.54;73.45;98649.44;1705707;84;21303;-59
2021/01/27 03:47:09;;;;;;;16.85;10.63;;;;;;;-0.56;73.55;98654.70;1709174;84;21168;-59
2021/01/27 03:49:55;;;;;;;14.23;9.48;;;;;;;-0.54;73.56;98662.80;1699544;83;21739;-59
2021/01/27 03:52:37;;;;;;;17.27;10.55;;;;;;;-0.56;73.56;98658.19;1627184;86;21352;-59
2021/01/27 03:55:19;;;;;;;18.15;10.88;;;;;;;-0.56;73.63;98656.03;1694694;84;21180;-59
2021/01/27 03:58:11;;;;;;;17.30;10.45;;;;;;;-0.58;73.76;98654.94;1689378;84;21194;-59
2021/01/27 04:00:38;;;;;;;20.43;11.97;;;;;;;-0.59;73.81;98655.97;1707353;84;21604;-59
2021/01/27 04:03:12;;;;;;;18.73;12.00;;;;;;;-0.59;73.90;98669.86;1707161;83;21640;-59
2021/01/27 04:05:40;;;;;;;16.12;10.65;;;;;;;-0.59;73.90;98665.33;1707947;83;21728;-59
2021/01/27 04:08:07;;;;;;;18.67;11.88;;;;;;;-0.54;73.85;98658.80;1709295;83;21312;-59
2021/01/27 04:10:36;;;;;;;19.42;11.22;;;;;;;-0.54;73.88;98653.97;1715233;83;21121;-59
2021/01/27 04:13:03;;;;;;;18.48;11.63;;;;;;;-0.57;73.95;98656.55;1722706;82;21168;-59
2021/01/27 04:15:31;;;;;;;16.00;9.93;;;;;;;-0.54;74.00;98663.33;1718293;83;21117;-59
2021/01/27 04:17:58;;;;;;;17.17;10.63;;;;;;;-0.57;74.04;98663.78;1721923;83;21173;-58
2021/01/27 04:20:27;;;;;;;17.77;11.30;;;;;;;-0.53;73.97;98671.09;1697054;83;21130;-59
2021/01/27 04:22:55;;;;;;;18.02;11.05;;;;;;;-0.52;73.98;98660.70;1695860;83;21542;-59
2021/01/27 04:25:22;;;;;;;17.80;11.65;;;;;;;-0.53;74.00;98668.94;1707955;83;21568;-59
2021/01/27 04:27:50;;;;;;;20.88;12.45;;;;;;;-0.52;74.04;98662.56;1720045;83;21192;-59
2021/01/27 04:30:22;;;;;;;21.95;13.80;;;;;;;-0.53;74.13;98664.93;1722152;83;21434;-59
2021/01/27 04:32:50;;;;;;;24.02;14.00;;;;;;;-0.52;74.15;98664.72;1718202;82;21200;-59
2021/01/27 04:35:19;;;;;;;23.70;14.63;;;;;;;-0.48;74.14;98662.41;1716824;83;21133;-58
2021/01/27 04:37:47;;;;;;;22.37;13.62;;;;;;;-0.48;74.18;98663.74;1721971;83;21161;-58
2021/01/27 04:40:25;;;;;;;23.95;13.88;;;;;;;-0.51;74.31;98670.89;1722850;83;21157;-59
2021/01/27 04:42:52;;;;;;;21.95;13.98;;;;;;;-0.65;74.41;98650.72;1709116;83;21342;-59
2021/01/27 04:45:20;;;;;;;20.45;13.38;;;;;;;-0.57;74.58;98663.78;1707069;83;21156;-58
2021/01/27 04:48:07;;;;;;;20.80;12.50;;;;;;;-0.52;74.55;98671.92;1720354;83;21165;-58
2021/01/27 04:50:49;;;;;;;22.32;11.80;;;;;;;-0.48;74.48;98666.94;1701681;83;21958;-59
2021/01/27 04:53:50;;;;;;;20.60;12.82;;;;;;;-0.51;74.52;98665.02;1698225;83;21584;-58
2021/01/27 04:56:55;;;;;;;21.05;12.58;;;;;;;-0.53;74.63;98668.42;1714747;83;21158;-59
2021/01/27 04:59:53;;;;;;;21.15;12.05;;;;;;;-0.60;74.81;98669.03;1695051;83;21169;-58
2021/01/27 05:02:48;;;;;;;20.68;12.60;;;;;;;-0.63;74.96;98677.51;1722692;83;21708;-59
2021/01/27 05:05:25;;;;;;;20.35;12.10;;;;;;;-0.66;75.09;98671.28;1706955;84;21154;-59
2021/01/27 05:08:05;;;;;;;19.57;11.53;;;;;;;-0.66;75.20;98677.96;1706851;84;21153;-59
2021/01/27 05:10:41;;;;;;;21.52;13.15;;;;;;;-0.70;75.36;98673.28;1689675;84;21708;-59
2021/01/27 05:13:18;;;;;;;20.37;12.40;;;;;;;-0.72;75.45;98674.86;1679874;85;21371;-59
2021/01/27 05:15:48;;;;;;;22.22;13.78;;;;;;;-0.73;75.56;98667.87;1692993;84;21700;-59
2021/01/27 05:18:16;;;;;;;29.50;15.78;;;;;;;-0.74;75.64;98662.23;1709368;84;21189;-59
2021/01/27 05:20:47;;;;;;;28.17;16.37;;;;;;;-0.70;75.62;98673.28;1709285;83;21157;-60
2021/01/27 05:23:15;;;;;;;22.22;14.20;;;;;;;-0.70;75.64;98673.28;1686956;84;21291;-59
2021/01/27 05:26:09;;;;;;;21.35;13.35;;;;;;;-0.62;75.48;98678.33;1707021;84;21288;-59
2021/01/27 05:28:43;;;;;;;19.62;12.53;;;;;;;-0.59;75.43;98679.20;1709268;84;21177;-59
2021/01/27 05:31:10;;;;;;;24.75;13.95;;;;;;;-0.60;75.38;98683.73;1706295;84;21158;-60
2021/01/27 05:33:51;;;;;;;20.62;13.50;;;;;;;-0.63;75.53;98690.05;1695332;82;21191;-60
2021/01/27 05:36:25;;;;;;;21.15;12.95;;;;;;;-0.69;75.64;98686.44;1709526;83;21142;-60
2021/01/27 05:39:13;;;;;;;18.98;11.45;;;;;;;-0.69;75.71;98686.95;1709344;84;21151;-60
2021/01/27 05:41:40;;;;;;;;;;;;;;;-0.73;75.89;98686.59;1698023;84;21205;-60
2021/01/27 05:44:12;;;;;;;22.03;12.03;;;;;;;-0.75;76.01;98694.02;1636489;85;20166;-60
2021/01/27 05:46:40;;;;;;;20.80;12.68;;;;;;;-0.85;76.34;98689.70;1643461;86;21827;-60
2021/01/27 05:49:30;;;;;;;22.05;13.05;;;;;;;-0.82;76.36;98695.95;1670632;85;21197;-60
2021/01/27 05:52:18;;;;;;;23.92;14.75;;;;;;;-0.82;76.48;98701.30;1669644;86;21323;-60
2021/01/27 05:54:46;;;;;;;23.85;15.70;;;;;;;-0.77;76.43;98704.62;1651845;86;21193;-59
2021/01/27 05:57:28;;;;;;;25.65;14.87;;;;;;;-0.75;76.40;98703.89;1679339;84;21312;-59
2021/01/27 06:00:26;;;;;;;26.33;15.68;;;;;;;-0.70;76.31;98696.00;1701252;84;21130;-60
2021/01/27 06:02:55;;;;;;;20.15;12.68;;;;;;;-0.67;76.23;98706.23;1694349;84;21106;-59
2021/01/27 06:05:35;;;;;;;21.93;13.75;;;;;;;-0.65;76.22;98709.00;1715757;83;21149;-59
2021/01/27 06:08:12;;;;;;;20.97;13.80;;;;;;;-0.67;76.19;98705.72;1705973;83;21177;-59
2021/01/27 06:10:39;;;;;;;;;;;;;;;-0.63;76.31;98719.45;1723564;83;21155;-59
2021/01/27 06:13:21;;;;;;;21.60;12.98;;;;;;;-0.58;76.34;98721.77;1708441;83;20174;-59
2021/01/27 06:15:49;;;;;;;19.12;12.23;;;;;;;-0.61;76.43;98716.05;1693970;85;21549;-59
2021/01/27 06:18:23;;;;;;;21.00;12.73;;;;;;;-0.59;76.37;98727.33;1696400;83;21186;-60
2021/01/27 06:21:15;;;;;;;18.02;11.20;;;;;;;-0.57;76.37;98732.73;1696280;83;21300;-60
2021/01/27 06:24:11;;;;;;;19.00;11.50;;;;;;;-0.54;76.30;98732.83;1708648;83;21190;-60
2021/01/27 06:26:47;;;;;;;22.02;12.70;;;;;;;-0.58;76.33;98736.47;1722439;83;21667;-59
2021/01/27 06:29:29;;;;;;;20.25;12.93;;;;;;;-0.63;76.41;98735.49;1722816;83;21741;-59
2021/01/27 06:32:30;;;;;;;20.88;11.80;;;;;;;-0.62;76.48;98737.13;1711843;83;21126;-60
2021/01/27 06:35:37;;;;;;;18.45;10.78;;;;;;;-0.61;76.46;98738.26;1692576;85;21142;-59
2021/01/27 06:38:45;;;;;;;17.42;10.68;;;;;;;-0.71;76.78;98735.81;1692008;85;21205;-59
2021/01/27 06:41:50;;;;;;;16.55;10.88;;;;;;;-0.75;76.93;98726.09;1692534;85;21558;-60
2021/01/27 06:44:42;;;;;;;16.87;10.48;;;;;;;-0.78;77.19;98727.06;1692384;85;21339;-59
2021/01/27 06:47:57;;;;;;;16.97;10.48;;;;;;;-0.76;77.28;98719.63;1692506;85;21166;-59
2021/01/27 06:50:58;;;;;;;14.63;9.53;;;;;;;-0.73;77.30;98728.01;1656515;83;21129;-60
2021/01/27 06:53:46;;;;;;;16.00;10.70;;;;;;;-0.72;77.41;98723.48;1722854;83;21310;-60
2021/01/27 06:56:28;;;;;;;18.40;11.78;;;;;;;-0.71;77.59;98722.45;1722864;83;21287;-60
2021/01/27 06:59:17;;;;;;;19.00;11.15;;;;;;;-0.68;77.66;98719.33;1720260;83;21177;-60
2021/01/27 07:02:05;;;;;;;19.80;12.43;;;;;;;-0.65;77.70;98717.02;1706967;83;21335;-59
2021/01/27 07:05:15;;;;;;;19.07;12.55;;;;;;;-0.62;77.79;98716.56;1703289;83;21161;-58
2021/01/27 07:07:54;;;;;;;18.70;12.07;;;;;;;-0.59;77.84;98712.11;1706382;83;21141;-58
2021/01/27 07:10:49;;;;;;;22.87;13.90;;;;;;;-0.56;77.90;98722.34;1722937;83;21609;-59
2021/01/27 07:13:47;;;;;;;15.55;11.08;;;;;;;-0.46;77.82;98721.02;1717926;83;21333;-59
2021/01/27 07:16:16;;;;;;;;;;;;;;;-0.36;77.64;98726.12;1725455;83;21137;-59
2021/01/27 07:19:05;;;;;;;19.62;11.93;;;;;;;-0.39;77.78;98729.22;1722987;83;20446;-59
2021/01/27 07:22:02;;;;;;;21.15;12.88;;;;;;;-0.40;77.88;98720.10;1703010;83;21154;-61
2021/01/27 07:24:39;;;;;;;26.23;15.70;;;;;;;-0.36;77.82;98724.78;1692572;84;21739;-60
2021/01/27 07:27:19;;;;;;;29.37;17.25;;;;;;;-0.28;77.69;98724.96;1701746;83;21165;-60
2021/01/27 07:30:07;;;;;;;32.75;18.42;;;;;;;-0.23;77.73;98726.45;1699460;83;21804;-59
2021/01/27 07:32:57;;;;;;;32.78;18.87;;;;;;;-0.14;77.45;98725.07;1697528;83;21335;-59
2021/01/27 07:35:41;;;;;;;32.23;19.82;;;;;;;-0.09;77.25;98725.22;1722729;83;21568;-60
2021/01/27 07:38:18;;;;;;;30.80;16.95;;;;;;;-0.05;76.68;98717.03;1723063;82;21177;-60
2021/01/27 07:40:58;;;;;;;30.70;19.60;;;;;;;0.00;76.63;98719.31;1722604;83;21148;-60
2021/01/27 07:44:00;;;;;;;28.00;17.27;;;;;;;-0.02;76.59;98722.75;1723123;83;21149;-60
2021/01/27 07:46:42;;;;;;;27.95;17.55;;;;;;;0.04;76.65;98733.05;1678739;84;21599;-59
2021/01/27 07:49:09;;;;;;;29.10;18.45;;;;;;;0.12;76.08;98729.23;1685929;84;21217;-60
2021/01/27 07:51:45;;;;;;;24.90;15.68;;;;;;;0.09;75.88;98730.52;1685796;84;21164;-61
2021/01/27 07:54:24;;;;;;;26.95;16.50;;;;;;;0.11;75.48;98731.09;1702293;83;21544;-57
2021/01/27 07:57:27;;;;;;;26.62;15.68;;;;;;;0.09;75.54;98733.70;1692639;85;21715;-58
2021/01/27 08:00:11;;;;;;;28.25;16.57;;;;;;;0.10;75.35;98723.30;1705043;82;21738;-59
2021/01/27 08:03:25;;;;;;;23.10;13.88;;;;;;;0.06;75.64;98722.95;1706959;84;21768;-59
2021/01/27 08:06:00;;;;;;;27.37;15.98;;;;;;;0.07;75.56;98724.59;1663308;86;21585;-59
2021/01/27 08:08:27;;;;;;;26.55;17.25;;;;;;;0.07;75.62;98715.74;1711709;83;21315;-59
2021/01/27 08:10:54;;;;;;;26.75;16.82;;;;;;;0.09;75.70;98724.34;1718149;83;21215;-60
2021/01/27 08:13:36;;;;;;;26.68;16.07;;;;;;;0.10;75.65;98717.44;1699853;83;21218;-60
2021/01/27 08:16:36;;;;;;;26.45;15.60;;;;;;;0.15;75.31;98708.18;1710314;83;21149;-60
2021/01/27 08:19:18;;;;;;;28.52;17.55;;;;;;;0.18;75.60;98720.31;1702945;83;21225;-61
2021/01/27 08:21:51;;;;;;;26.23;16.27;;;;;;;0.30;75.57;98722.47;1692214;85;21613;-61
2021/01/27 08:26:06;;;;;;;26.20;16.90;;;;;;;0.54;75.24;98730.00;1818765;79;22699;-60
2021/01/27 08:28:39;;;;;;;27.02;17.55;;;;;;;0.47;74.41;98717.55;1776273;80;21581;-60
2021/01/27 08:31:18;;;;;;;27.30;17.25;;;;;;;0.52;74.39;98725.41;1755021;82;21153;-61
2021/01/27 08:33:53;;;;;;;26.33;16.35;;;;;;;0.55;74.10;98719.07;1747794;80;21129;-61
2021/01/27 08:36:31;;;;;;;24.80;15.98;;;;;;;0.57;73.94;98725.00;1731666;81;21631;-61
2021/01/27 08:39:11;;;;;;;25.90;16.82;;;;;;;0.58;73.45;98718.60;1748825;81;21121;-64
2021/01/27 08:41:45;;;;;;;26.40;16.20;;;;;;;0.56;72.90;98720.70;1760696;80;21156;-60
2021/01/27 08:44:25;;;;;;;21.57;14.03;;;;;;;0.55;72.69;98725.77;1753548;81;21343;-59
2021/01/27 08:47:18;;;;;;;23.32;15.38;;;;;;;0.57;72.41;98726.88;1753431;81;21125;-60
2021/01/27 08:49:59;;;;;;;22.50;14.83;;;;;;;0.54;72.70;98727.32;1705585;82;21185;-59
2021/01/27 08:52:34;;;;;;;19.25;13.08;;;;;;;0.57;72.74;98735.70;1730977;82;21147;-60
2021/01/27 08:55:02;;;;;;;19.67;13.10;;;;;;;0.64;71.75;98732.39;1730644;81;21205;-61
2021/01/27 08:57:36;;;;;;;19.52;12.73;;;;;;;0.70;71.43;98730.15;1736698;80;21169;-60
2021/01/27 09:00:35;;;;;;;17.25;11.90;;;;;;;0.69;71.34;98743.24;1758848;80;21210;-60
2021/01/27 09:03:03;;;;;;;19.10;11.53;;;;;;;0.76;70.58;98734.56;1754605;81;21138;-60
2021/01/27 09:05:38;;;;;;;17.62;12.15;;;;;;;0.73;69.98;98727.52;1754676;81;21210;-60
2021/01/27 09:08:23;;;;;;;15.30;10.28;;;;;;;0.78;69.71;98731.67;1754146;81;21157;-60
2021/01/27 09:11:00;;;;;;;17.80;11.12;;;;;;;0.80;69.56;98726.88;1760738;81;21189;-59
2021/01/27 09:13:39;;;;;;;17.15;11.20;;;;;;;0.81;69.16;98719.14;1757296;81;21723;-59
2021/01/27 09:16:23;;;;;;;17.00;10.15;;;;;;;0.84;68.84;98720.02;1753215;81;21295;-60
2021/01/27 09:19:19;;;;;;;15.48;10.35;;;;;;;0.85;69.54;98716.29;1753443;82;21175;-60
2021/01/27 09:22:03;;;;;;;18.42;11.90;;;;;;;0.89;69.13;98718.25;1753598;82;21165;-60
2021/01/27 09:24:43;;;;;;;20.40;12.82;;;;;;;0.86;68.01;98720.58;1754912;80;21180;-60
2021/01/27 09:27:21;;;;;;;17.20;10.72;;;;;;;0.83;67.31;98709.81;1739526;82;21161;-59
2021/01/27 09:30:04;;;;;;;16.02;10.23;;;;;;;0.78;67.08;98710.23;1741220;82;21614;-59
2021/01/27 09:32:32;;;;;;;21.75;14.33;;;;;;;0.77;67.42;98714.77;1741303;82;21166;-61
2021/01/27 09:35:14;;;;;;;16.85;10.23;;;;;;;0.78;67.54;98725.77;1740722;82;21141;-61
2021/01/27 09:37:56;;;;;;;17.17;11.15;;;;;;;0.77;67.20;98717.98;1739484;82;21162;-60
2021/01/27 09:40:31;;;;;;;21.48;12.90;;;;;;;0.82;67.60;98718.07;1739648;82;21744;-60
2021/01/27 09:43:03;;;;;;;26.70;20.05;;;;;;;0.85;68.01;98714.40;1739612;82;21283;-61
2021/01/27 09:45:32;;;;;;;15.55;10.30;;;;;;;0.90;67.04;98708.34;1739831;82;21177;-61
2021/01/27 09:48:00;;;;;;;17.87;12.25;;;;;;;0.93;67.14;98705.20;1742436;82;21160;-60
2021/01/27 09:50:27;;;;;;;16.32;9.73;;;;;;;0.99;67.26;98706.96;1747089;82;21727;-60
2021/01/27 09:52:58;;;;;;;13.85;8.65;;;;;;;1.00;66.86;98695.98;1725856;82;21185;-61
2021/01/27 09:55:26;;;;;;;14.60;8.88;;;;;;;0.99;65.64;98684.97;1746999;82;21172;-61
2021/01/27 09:57:54;;;;;;;14.50;9.38;;;;;;;1.00;65.34;98691.15;1747032;82;21663;-63
2021/01/27 10:00:36;;;;;;;15.90;9.65;;;;;;;0.96;65.64;98693.48;1747065;82;21774;-60
2021/01/27 10:07:18;;;;;;;21.15;13.55;;;;;;;0.97;65.24;98688.94;1779209;79;23121;-62
2021/01/27 10:09:51;;;;;;;14.98;9.80;;;;;;;0.90;65.58;98691.75;1704422;83;21192;-62
2021/01/27 10:12:27;;;;;;;12.93;8.13;;;;;;;0.98;65.13;98695.94;1704733;84;21161;-62
2021/01/27 10:15:22;;;;;;;13.48;8.80;;;;;;;0.99;65.46;98691.67;1679418;85;21250;-62
2021/01/27 10:17:55;;;;;;;29.12;18.30;;;;;;;1.02;65.65;98697.63;1679350;85;21169;-62
2021/01/27 10:20:31;;;;;;;21.97;14.25;;;;;;;1.06;65.75;98683.53;1679208;84;21145;-62
2021/01/27 10:23:02;;;;;;;17.15;12.00;;;;;;;1.11;65.68;98687.64;1680913;84;21188;-61
2021/01/27 10:25:37;;;;;;;30.77;18.87;;;;;;;1.10;64.82;98690.02;1679452;84;21669;-62
2021/01/27 10:28:18;;;;;;;22.52;14.33;;;;;;;1.12;64.78;98686.59;1679302;85;21557;-62
2021/01/27 10:31:01;;;;;;;12.98;8.45;;;;;;;1.04;64.83;98676.75;1679056;85;21164;-62
2021/01/27 10:33:44;;;;;;;13.05;8.38;;;;;;;1.05;64.85;98682.41;1673767;84;21226;-62
2021/01/27 10:36:41;;;;;;;11.65;7.45;;;;;;;1.04;64.79;98676.23;1702733;84;21173;-62
2021/01/27 10:39:27;;;;;;;10.55;6.87;;;;;;;1.02;64.07;98678.86;1702776;84;21327;-62
2021/01/27 10:42:20;;;;;;;12.07;6.70;;;;;;;1.03;63.56;98683.19;1700524;83;21177;-62
2021/01/27 10:45:12;;;;;;;10.93;6.65;;;;;;;1.01;63.52;98668.66;1698263;84;21221;-62
2021/01/27 10:47:40;;;;;;;13.88;8.60;;;;;;;1.04;63.91;98666.03;1702597;83;21177;-62
2021/01/27 10:50:09;;;;;;;11.20;7.58;;;;;;;1.08;64.20;98661.83;1702727;84;21615;-62
2021/01/27 10:52:36;;;;;;;13.05;7.97;;;;;;;1.07;63.39;98662.35;1676528;84;21674;-62
2021/01/27 10:55:07;;;;;;;13.30;7.75;;;;;;;1.14;63.75;98660.88;1674449;86;21184;-62
2021/01/27 10:57:34;;;;;;;12.00;7.40;;;;;;;1.11;63.53;98653.31;1674360;86;21185;-62
2021/01/27 11:00:06;;;;;;;9.78;6.30;;;;;;;1.09;63.13;98654.91;1674446;86;21169;-62
2021/01/27 11:02:33;;;;;;;11.35;6.33;;;;;;;1.06;63.15;98656.73;1678500;84;21173;-61
2021/01/27 11:05:01;;;;;;;11.20;6.55;;;;;;;1.13;63.39;98658.75;1675242;84;21199;-61
2021/01/27 11:07:28;;;;;;;10.25;6.03;;;;;;;1.14;63.08;98660.36;1650884;87;21606;-62
2021/01/27 11:09:56;;;;;;;10.48;6.90;;;;;;;1.17;62.25;98659.09;1655779;85;21335;-61
2021/01/27 11:12:24;;;;;;;12.18;6.78;;;;;;;1.15;62.52;98653.13;1678287;85;21162;-61
2021/01/27 11:14:51;;;;;;;11.38;6.42;;;;;;;1.21;62.20;98657.02;1678294;85;21629;-61
2021/01/27 11:17:18;;;;;;;10.28;6.25;;;;;;;1.15;61.98;98654.47;1678142;85;21210;-61
2021/01/27 11:19:46;;;;;;;13.00;6.67;;;;;;;1.10;61.80;98653.83;1677859;85;21198;-61
2021/01/27 11:22:13;;;;;;;12.25;6.60;;;;;;;1.02;62.61;98645.37;1675937;85;21173;-61
2021/01/27 11:24:41;;;;;;;12.68;7.33;;;;;;;1.01;62.91;98641.87;1677663;85;21146;-61
2021/01/27 11:27:08;;;;;;;12.60;7.08;;;;;;;1.00;63.15;98641.56;1677896;85;21606;-61
2021/01/27 11:29:36;;;;;;;11.60;7.08;;;;;;;0.98;62.93;98644.50;1677934;85;21206;-61
2021/01/27 11:32:04;;;;;;;10.35;6.53;;;;;;;0.97;63.11;98644.20;1676036;85;21329;-61
2021/01/27 11:34:31;;;;;;;12.43;7.35;;;;;;;0.98;63.16;98651.72;1677773;85;21212;-61
2021/01/27 11:36:58;;;;;;;11.38;7.20;;;;;;;1.00;63.12;98645.06;1677864;85;21166;-61
2021/01/27 11:39:26;;;;;;;10.95;6.45;;;;;;;0.98;63.28;98643.69;1677785;85;21641;-62
2021/01/27 11:41:53;;;;;;;10.20;6.87;;;;;;;0.90;63.41;98636.83;1650451;86;21533;-61
2021/01/27 11:44:21;;;;;;;10.82;7.12;;;;;;;0.92;63.60;98640.06;1637378;87;21183;-61
2021/01/27 11:46:48;;;;;;;9.28;5.65;;;;;;;0.91;63.74;98645.16;1634580;88;21209;-61
2021/01/27 11:49:16;;;;;;;11.30;7.50;;;;;;;0.98;64.12;98640.48;1666906;86;21181;-60
2021/01/27 11:51:45;;;;;;;12.45;8.18;;;;;;;0.95;64.23;98641.48;1668578;85;21465;-61
2021/01/27 11:54:12;;;;;;;14.00;8.63;;;;;;;0.92;64.33;98637.39;1667012;85;21197;-61
2021/01/27 11:56:41;;;;;;;13.13;8.18;;;;;;;0.92;64.51;98639.28;1666536;86;21173;-61
2021/01/27 11:59:09;;;;;;;13.68;7.62;;;;;;;0.96;64.77;98631.03;1673302;85;21528;-61
2021/01/27 12:01:37;;;;;;;12.13;8.75;;;;;;;0.92;64.88;98632.58;1694526;85;21339;-61
2021/01/27 12:04:05;;;;;;;18.05;11.45;;;;;;;0.87;64.80;98629.78;1694656;85;21331;-61
2021/01/27 12:06:33;;;;;;;17.02;9.88;;;;;;;0.82;65.11;98631.82;1701904;84;21128;-61
2021/01/27 12:09:00;;;;;;;17.50;10.05;;;;;;;0.74;65.25;98628.70;1709933;84;21209;-62
2021/01/27 12:11:28;;;;;;;15.72;9.95;;;;;;;0.74;65.41;98628.70;1640230;87;21627;-61
2021/01/27 12:13:56;;;;;;;14.87;10.13;;;;;;;0.70;65.94;98617.65;1679531;84;21155;-61
2021/01/27 12:16:25;;;;;;;15.80;9.98;;;;;;;0.70;66.20;98628.87;1679211;85;21377;-61
2021/01/27 12:18:53;;;;;;;15.85;9.98;;;;;;;0.67;66.24;98632.85;1692915;84;21132;-61